Shoshone, Idaho
Current Conditions -  °F | °C
As of 12:53 PM on Sunday 25 Jan 2015 (Local Time) from KJER Reporting Station
Clear Clear  
Wind Chill: 32°   Ceiling: Unl
Heat Index: 38°   Visibility: 10mi
Dew Point: 32°   Wind: 8mph
Humidity: 79%   Direction: 30°NNE
Pressure: 30.42"   Gusts: NA
Location:  42.94°N, 114.41°W
Report Text: KJER 251953Z AUTO 03007KT 10SM CLR 03/00 A3042 RMK AO2 SLP326 T00330000
Loading
Personal Weather Stations






























Interactive Weather Map New forecast layout! Learn more

10-Day Weather Forecast

Advertisements
Track Severe Weather on mobile